Time;durP1;ratioP1;P1;durP2;ratioP2;P2;SDS_P1;SDS_P2;PMS_P1;PMS_P2;Temp;Humidity;BMP_temperature;BMP_pressure;BME280_temperature;BME280_humidity;BME280_pressure;Samples;Min_cycle;Max_cycle;Signal;HPM_P1;HPM_P2
2021/06/27 00:02:14;;;;;;;10.75;9.65;;;17.20;99.90;;;;;;5053712;28;20037;-64
2021/06/27 00:04:40;;;;;;;12.80;9.98;;;17.20;99.90;;;;;;5032705;28;20038;-64
2021/06/27 00:07:06;;;;;;;10.25;9.15;;;17.20;99.90;;;;;;5032959;28;20041;-64
2021/06/27 00:09:32;;;;;;;12.35;10.05;;;17.10;99.90;;;;;;5051750;28;20025;-64
2021/06/27 00:11:58;;;;;;;16.08;10.80;;;17.10;99.90;;;;;;5052275;28;20021;-65
2021/06/27 00:14:24;;;;;;;13.02;10.93;;;17.10;99.90;;;;;;5052945;28;20029;-64
2021/06/27 00:16:52;;;;;;;12.65;11.20;;;17.10;99.90;;;;;;5051783;28;20485;-64
2021/06/27 00:19:19;;;;;;;12.15;10.63;;;17.00;99.90;;;;;;5052882;28;20029;-64
2021/06/27 00:21:45;;;;;;;14.40;11.60;;;17.00;99.90;;;;;;5053954;28;20020;-64
2021/06/27 00:24:10;;;;;;;12.65;11.30;;;17.00;99.90;;;;;;5072252;28;20028;-64
2021/06/27 00:26:36;;;;;;;15.45;11.38;;;16.90;99.90;;;;;;5072702;28;20040;-65
2021/06/27 00:29:03;;;;;;;15.43;11.65;;;16.90;99.90;;;;;;5071511;28;20440;-65
2021/06/27 00:31:28;;;;;;;12.43;11.13;;;16.90;99.90;;;;;;5072365;28;20028;-65
2021/06/27 00:33:54;;;;;;;13.70;11.32;;;16.90;99.90;;;;;;5057816;28;20021;-65
2021/06/27 00:36:20;;;;;;;11.23;10.13;;;16.90;99.90;;;;;;5052556;28;20035;-65
2021/06/27 00:38:45;;;;;;;10.75;9.65;;;16.90;99.90;;;;;;5050448;28;20033;-65
2021/06/27 00:41:12;;;;;;;13.65;11.10;;;16.90;99.90;;;;;;5051918;28;20102;-64
2021/06/27 00:43:37;;;;;;;10.77;9.73;;;16.80;99.90;;;;;;5052347;28;20029;-65
2021/06/27 00:46:03;;;;;;;10.30;9.20;;;16.80;99.90;;;;;;5051054;28;20036;-65
2021/06/27 00:48:29;;;;;;;9.60;8.60;;;16.80;99.90;;;;;;5051834;28;20095;-64
2021/06/27 00:50:58;;;;;;;10.68;9.68;;;16.90;99.90;;;;;;5051619;28;20113;-64
2021/06/27 00:53:24;;;;;;;11.18;9.98;;;16.90;99.90;;;;;;5051923;28;20043;-64
2021/06/27 00:55:55;;;;;;;10.13;9.02;;;16.80;99.90;;;;;;5051537;28;20108;-64
2021/06/27 00:58:29;;;;;;;9.95;8.88;;;16.80;99.90;;;;;;5052109;28;20048;-65
2021/06/27 01:00:55;;;;;;;10.05;9.10;;;16.70;99.90;;;;;;5051914;28;20079;-65
2021/06/27 01:03:21;;;;;;;9.93;8.93;;;16.70;99.90;;;;;;5061592;28;20102;-65
2021/06/27 01:05:47;;;;;;;10.20;9.20;;;16.60;99.90;;;;;;5051432;28;20056;-65
2021/06/27 01:08:12;;;;;;;11.30;9.18;;;16.50;99.90;;;;;;5051833;28;20064;-65
2021/06/27 01:10:38;;;;;;;9.75;8.75;;;16.50;99.90;;;;;;5051779;28;20024;-65
2021/06/27 01:13:04;;;;;;;9.30;8.32;;;16.50;99.90;;;;;;5050898;28;20171;-65
2021/06/27 01:15:30;;;;;;;11.23;8.98;;;16.50;99.90;;;;;;5051898;28;20116;-65
2021/06/27 01:17:57;;;;;;;9.27;8.35;;;16.40;99.90;;;;;;5051216;28;20115;-65
2021/06/27 01:20:33;;;;;;;9.68;8.30;;;16.40;99.90;;;;;;5051865;28;20055;-65
2021/06/27 01:23:01;;;;;;;8.73;7.93;;;16.40;99.90;;;;;;5050916;28;20057;-65
2021/06/27 01:25:30;;;;;;;8.70;7.85;;;16.30;99.90;;;;;;5051899;28;20070;-65
2021/06/27 01:27:57;;;;;;;10.95;8.48;;;16.30;99.90;;;;;;5051198;28;20025;-65
2021/06/27 01:30:24;;;;;;;8.90;8.00;;;16.20;99.90;;;;;;5051710;28;20371;-65
2021/06/27 01:32:51;;;;;;;9.27;8.38;;;16.20;99.90;;;;;;5049500;28;20083;-65
2021/06/27 01:35:20;;;;;;;9.13;7.65;;;16.20;99.90;;;;;;5051913;28;20036;-65
2021/06/27 01:37:47;;;;;;;8.25;7.38;;;16.20;99.90;;;;;;5050979;28;20040;-65
2021/06/27 01:40:16;;;;;;;8.50;7.32;;;16.20;99.90;;;;;;5051676;28;20025;-64
2021/06/27 01:42:43;;;;;;;8.98;7.60;;;16.20;99.90;;;;;;5050980;28;20029;-65
2021/06/27 01:45:11;;;;;;;8.13;7.32;;;16.30;99.90;;;;;;5050886;28;20482;-64
2021/06/27 01:47:36;;;;;;;10.02;7.18;;;16.30;99.90;;;;;;5051602;28;20029;-64
2021/06/27 01:50:05;;;;;;;7.40;6.70;;;16.30;99.90;;;;;;5050859;28;20039;-65
2021/06/27 01:52:31;;;;;;;8.40;7.60;;;16.30;99.90;;;;;;5051445;28;20029;-64
2021/06/27 01:54:57;;;;;;;10.65;6.78;;;16.30;99.90;;;;;;5050071;28;20056;-65
2021/06/27 01:57:22;;;;;;;9.45;7.85;;;16.30;99.90;;;;;;5051426;28;20111;-64
2021/06/27 01:59:49;;;;;;;8.73;7.82;;;16.30;99.90;;;;;;5050556;28;20025;-65
2021/06/27 02:02:16;;;;;;;8.38;7.57;;;16.20;99.90;;;;;;5051232;28;20025;-65
2021/06/27 02:04:43;;;;;;;8.27;7.47;;;16.20;99.90;;;;;;5051590;28;20100;-65
2021/06/27 02:07:08;;;;;;;12.73;7.20;;;16.20;99.90;;;;;;5050801;28;20060;-65
2021/06/27 02:09:34;;;;;;;7.95;7.22;;;16.10;99.90;;;;;;5051185;28;20048;-65
2021/06/27 02:12:00;;;;;;;8.30;7.50;;;16.10;99.90;;;;;;5050915;28;20467;-65
2021/06/27 02:14:26;;;;;;;7.82;7.05;;;16.10;99.90;;;;;;5051552;28;20032;-65
2021/06/27 02:16:52;;;;;;;7.88;7.05;;;16.10;99.90;;;;;;5050419;28;20055;-65
2021/06/27 02:19:17;;;;;;;8.95;7.88;;;16.10;99.90;;;;;;5051347;28;20025;-65
2021/06/27 02:21:43;;;;;;;12.70;9.35;;;16.10;99.90;;;;;;5051080;28;20431;-65
2021/06/27 02:24:09;;;;;;;8.10;7.32;;;16.10;99.90;;;;;;5050503;28;20425;-64
2021/06/27 02:26:35;;;;;;;10.43;7.90;;;16.10;99.90;;;;;;5049684;28;20525;-66
2021/06/27 02:29:03;;;;;;;8.15;7.25;;;16.10;99.90;;;;;;5050447;28;20028;-66
2021/06/27 02:31:31;;;;;;;8.75;7.55;;;16.10;99.90;;;;;;5050698;28;20056;-66
2021/06/27 02:33:57;;;;;;;7.50;6.80;;;16.10;99.90;;;;;;5050476;28;20021;-66
2021/06/27 02:36:23;;;;;;;8.30;6.93;;;16.10;99.90;;;;;;5051145;28;20042;-66
2021/06/27 02:38:49;;;;;;;7.50;6.80;;;16.10;99.90;;;;;;5049852;28;20250;-66
2021/06/27 02:41:15;;;;;;;9.65;7.18;;;16.10;99.90;;;;;;5050680;28;20040;-64
2021/06/27 02:43:41;;;;;;;7.95;7.15;;;16.10;99.90;;;;;;5052350;28;20078;-64
2021/06/27 02:46:08;;;;;;;7.43;6.72;;;16.10;99.90;;;;;;5053640;28;20037;-64
2021/06/27 02:48:33;;;;;;;9.52;6.95;;;16.00;99.90;;;;;;5054571;28;20031;-64
2021/06/27 02:50:59;;;;;;;8.57;7.78;;;16.00;99.90;;;;;;5053776;28;20033;-64
2021/06/27 02:53:25;;;;;;;8.27;7.20;;;15.90;99.90;;;;;;5054265;28;20473;-64
2021/06/27 02:56:07;;;;;;;7.88;7.07;;;15.90;99.90;;;;;;5053744;28;20364;-65
2021/06/27 02:58:34;;;;;;;7.50;6.80;;;15.80;99.90;;;;;;5053949;28;20390;-64
2021/06/27 03:00:59;;;;;;;8.32;7.43;;;15.80;99.90;;;;;;5053363;28;20039;-64
2021/06/27 03:03:25;;;;;;;8.05;7.25;;;15.80;99.90;;;;;;5054092;28;20112;-64
2021/06/27 03:05:50;;;;;;;7.57;6.78;;;15.70;99.90;;;;;;5053620;28;20384;-64
2021/06/27 03:08:16;;;;;;;7.00;6.40;;;15.70;99.90;;;;;;5053777;28;20025;-64
2021/06/27 03:10:42;;;;;;;9.57;7.18;;;15.70;99.90;;;;;;5053750;28;20028;-64
2021/06/27 03:13:07;;;;;;;7.10;6.50;;;15.70;99.90;;;;;;5053444;28;20458;-64
2021/06/27 03:15:33;;;;;;;7.72;6.10;;;15.70;99.90;;;;;;5053900;28;20451;-64
2021/06/27 03:17:59;;;;;;;7.18;6.47;;;15.70;99.90;;;;;;5052658;28;20040;-64
2021/06/27 03:20:24;;;;;;;8.65;6.50;;;15.70;99.90;;;;;;5053488;28;20442;-64
2021/06/27 03:22:50;;;;;;;7.97;7.22;;;15.70;99.90;;;;;;5053151;28;20044;-64
2021/06/27 03:25:16;;;;;;;9.55;7.72;;;15.80;99.90;;;;;;5053865;28;20040;-64
2021/06/27 03:27:41;;;;;;;7.32;6.63;;;15.80;99.90;;;;;;5053746;28;20078;-64
2021/06/27 03:30:08;;;;;;;7.95;6.75;;;15.80;99.90;;;;;;5053011;28;20025;-64
2021/06/27 03:32:35;;;;;;;6.50;5.90;;;15.80;99.90;;;;;;5053589;28;20032;-64
2021/06/27 03:35:01;;;;;;;6.07;5.55;;;15.80;99.90;;;;;;5050504;28;20029;-64
2021/06/27 03:37:27;;;;;;;6.65;5.60;;;15.80;99.90;;;;;;5052682;28;20083;-64
2021/06/27 03:39:52;;;;;;;7.13;6.43;;;15.90;99.90;;;;;;5052812;28;20024;-64
2021/06/27 03:42:18;;;;;;;8.02;6.53;;;15.90;99.90;;;;;;5054089;28;20024;-64
2021/06/27 03:44:44;;;;;;;8.40;6.07;;;15.90;99.90;;;;;;5053075;28;20024;-64
2021/06/27 03:47:10;;;;;;;6.07;5.55;;;15.90;99.90;;;;;;5052833;28;20036;-64
2021/06/27 03:49:36;;;;;;;6.75;6.03;;;15.90;99.90;;;;;;5053147;28;20596;-64
2021/06/27 03:52:02;;;;;;;8.45;6.72;;;15.90;99.90;;;;;;5053053;28;20037;-64
2021/06/27 03:54:27;;;;;;;6.20;5.60;;;16.00;99.90;;;;;;5051351;28;20045;-64
2021/06/27 03:56:53;;;;;;;7.03;6.35;;;16.00;99.90;;;;;;5052117;28;20029;-64
2021/06/27 03:59:18;;;;;;;11.68;6.97;;;16.00;99.90;;;;;;5053179;28;20492;-64
2021/06/27 04:01:44;;;;;;;7.20;6.50;;;16.00;99.90;;;;;;5053200;28;20025;-64
2021/06/27 04:04:10;;;;;;;6.70;6.05;;;16.10;99.90;;;;;;5052480;28;20029;-64
2021/06/27 04:06:35;;;;;;;6.43;5.82;;;16.10;99.90;;;;;;5053348;28;20025;-64
2021/06/27 04:09:01;;;;;;;6.22;5.68;;;16.20;99.90;;;;;;5051757;28;20041;-64
2021/06/27 04:11:27;;;;;;;7.00;6.30;;;16.20;99.90;;;;;;5052972;28;20113;-64
2021/06/27 04:13:52;;;;;;;7.38;6.68;;;16.30;99.90;;;;;;5052263;28;20028;-64
2021/06/27 04:16:18;;;;;;;7.30;6.35;;;16.40;99.90;;;;;;5052281;28;20071;-64
2021/06/27 04:18:43;;;;;;;7.57;6.38;;;16.40;99.90;;;;;;5052416;28;20142;-64
2021/06/27 04:21:09;;;;;;;7.15;6.45;;;16.50;99.90;;;;;;5052000;28;20114;-64
2021/06/27 04:23:38;;;;;;;7.78;6.20;;;16.60;99.90;;;;;;5052494;28;20385;-64
2021/06/27 04:26:04;;;;;;;7.85;6.20;;;16.70;99.90;;;;;;5052004;28;20032;-64
2021/06/27 04:28:30;;;;;;;9.93;6.97;;;16.70;99.90;;;;;;5052378;28;20041;-64
2021/06/27 04:30:55;;;;;;;9.50;7.45;;;16.80;99.90;;;;;;5051949;28;20484;-64
2021/06/27 04:33:21;;;;;;;12.13;8.07;;;16.90;99.90;;;;;;5052004;28;20475;-64
2021/06/27 04:35:47;;;;;;;8.70;7.72;;;17.10;99.90;;;;;;5051670;28;20029;-64
2021/06/27 04:38:17;;;;;;;8.70;7.78;;;17.10;99.90;;;;;;5052527;28;20091;-65
2021/06/27 04:40:43;;;;;;;11.93;9.60;;;17.20;99.90;;;;;;5052311;28;20052;-64
2021/06/27 04:43:10;;;;;;;11.73;10.20;;;17.30;99.90;;;;;;5051879;28;20037;-64
2021/06/27 04:45:37;;;;;;;12.00;10.20;;;17.40;99.90;;;;;;5052399;28;20451;-65
2021/06/27 04:48:05;;;;;;;12.00;10.52;;;17.40;99.90;;;;;;5051407;28;20241;-64
2021/06/27 04:50:30;;;;;;;11.38;9.80;;;17.50;99.90;;;;;;5052387;28;20032;-64
2021/06/27 04:52:56;;;;;;;8.82;7.97;;;17.50;99.90;;;;;;5051373;28;20382;-64
2021/06/27 04:55:22;;;;;;;10.63;9.52;;;17.50;99.90;;;;;;5051871;28;20053;-64
2021/06/27 04:57:48;;;;;;;10.63;9.48;;;17.50;99.90;;;;;;5051232;28;20523;-64
2021/06/27 05:00:15;;;;;;;13.40;9.65;;;17.60;99.90;;;;;;5052160;28;20021;-64
2021/06/27 05:02:41;;;;;;;12.52;9.80;;;17.60;99.90;;;;;;5051741;28;20108;-64
2021/06/27 05:05:07;;;;;;;10.88;9.10;;;17.70;99.90;;;;;;5051082;28;20124;-64
2021/06/27 05:07:33;;;;;;;11.15;9.98;;;17.80;99.90;;;;;;5051755;28;20028;-64
2021/06/27 05:09:59;;;;;;;10.00;9.00;;;17.80;99.90;;;;;;5050779;28;20033;-64
2021/06/27 05:12:26;;;;;;;11.93;9.35;;;17.90;99.90;;;;;;5052043;28;20025;-64
2021/06/27 05:14:53;;;;;;;11.23;10.02;;;18.00;99.90;;;;;;5050961;28;20056;-64
2021/06/27 05:17:19;;;;;;;11.15;9.40;;;18.00;99.90;;;;;;5052006;28;20123;-64
2021/06/27 05:19:45;;;;;;;11.10;9.80;;;18.10;99.90;;;;;;5051731;28;20033;-64
2021/06/27 05:22:11;;;;;;;12.02;10.65;;;18.10;99.90;;;;;;5051776;28;20029;-64
2021/06/27 05:24:36;;;;;;;9.80;8.80;;;18.10;99.90;;;;;;5052085;28;20111;-64
2021/06/27 05:27:02;;;;;;;13.40;10.25;;;18.10;99.90;;;;;;5050743;28;20037;-64
2021/06/27 05:29:28;;;;;;;10.63;9.10;;;18.20;99.90;;;;;;5051661;28;20025;-64
2021/06/27 05:31:53;;;;;;;11.48;9.57;;;18.20;99.90;;;;;;5050551;28;20033;-64
2021/06/27 05:34:19;;;;;;;11.18;9.90;;;18.30;99.90;;;;;;5051031;28;20107;-64
2021/06/27 05:36:45;;;;;;;12.40;9.50;;;18.40;99.90;;;;;;5051033;28;20421;-64
2021/06/27 05:39:11;;;;;;;11.00;9.90;;;18.50;99.90;;;;;;5051260;28;20132;-64
2021/06/27 05:41:39;;;;;;;10.18;9.18;;;18.60;99.90;;;;;;5051477;28;20028;-64
2021/06/27 05:44:06;;;;;;;9.55;8.32;;;18.70;99.90;;;;;;5050685;28;20036;-64
2021/06/27 05:46:32;;;;;;;9.60;8.60;;;18.70;99.90;;;;;;5051184;28;20079;-64
2021/06/27 05:48:58;;;;;;;10.70;9.27;;;18.90;99.90;;;;;;5050735;28;20044;-64
2021/06/27 05:51:25;;;;;;;10.05;8.82;;;19.00;99.90;;;;;;5051235;28;20025;-64
2021/06/27 05:53:51;;;;;;;10.20;8.90;;;19.00;99.90;;;;;;5050484;28;20092;-64
2021/06/27 05:56:19;;;;;;;10.52;9.48;;;19.20;99.90;;;;;;5051697;28;20394;-64
2021/06/27 05:58:47;;;;;;;10.75;9.63;;;19.30;99.90;;;;;;5049540;28;20376;-65
2021/06/27 06:01:15;;;;;;;11.88;9.32;;;19.50;99.90;;;;;;5051416;28;20021;-64
2021/06/27 06:03:42;;;;;;;9.57;8.57;;;19.60;99.90;;;;;;5051406;28;20064;-64
2021/06/27 06:06:11;;;;;;;12.23;9.13;;;19.80;99.90;;;;;;5050247;28;20036;-64
2021/06/27 06:08:42;;;;;;;9.40;8.40;;;19.80;99.90;;;;;;5051359;28;20071;-64
2021/06/27 06:11:13;;;;;;;11.05;8.35;;;19.80;99.90;;;;;;5050321;28;20090;-64
2021/06/27 06:13:39;;;;;;;9.45;8.55;;;19.80;99.90;;;;;;5051512;28;20067;-64
2021/06/27 06:16:06;;;;;;;10.10;9.15;;;19.90;99.90;;;;;;5050690;28;20061;-64
2021/06/27 06:18:33;;;;;;;10.07;8.70;;;19.80;99.90;;;;;;5052500;28;20402;-64
2021/06/27 06:20:58;;;;;;;8.80;7.90;;;19.90;99.90;;;;;;5053762;28;20437;-64
2021/06/27 06:23:25;;;;;;;9.30;7.57;;;20.00;99.90;;;;;;5055223;28;20021;-64
2021/06/27 06:25:51;;;;;;;8.65;7.75;;;20.10;99.90;;;;;;5054286;28;20033;-64
2021/06/27 06:28:17;;;;;;;9.75;7.88;;;20.10;99.90;;;;;;5054834;28;20032;-64
2021/06/27 06:30:43;;;;;;;9.05;7.82;;;20.30;99.90;;;;;;5069528;28;20519;-64
2021/06/27 06:33:10;;;;;;;11.18;7.82;;;20.30;99.90;;;;;;5066303;28;20390;-65
2021/06/27 06:35:41;;;;;;;8.98;8.05;;;20.30;99.90;;;;;;5054658;28;20029;-65
2021/06/27 06:38:08;;;;;;;10.90;8.35;;;20.30;99.90;;;;;;5054229;28;20589;-65
2021/06/27 06:40:34;;;;;;;8.10;7.30;;;20.30;99.90;;;;;;5054713;28;20032;-66
2021/06/27 06:43:01;;;;;;;8.80;7.88;;;20.40;99.90;;;;;;5053612;28;20490;-66
2021/06/27 06:45:27;;;;;;;10.00;8.05;;;20.50;99.90;;;;;;5054313;28;20075;-64
2021/06/27 06:47:54;;;;;;;8.38;7.55;;;20.70;99.30;;;;;;5054101;28;20025;-66
2021/06/27 06:50:19;;;;;;;12.88;7.72;;;20.90;99.00;;;;;;5054681;28;20029;-66
2021/06/27 06:52:45;;;;;;;9.48;7.50;;;21.00;98.50;;;;;;5053738;28;20036;-66
2021/06/27 06:55:11;;;;;;;11.02;7.60;;;21.10;97.00;;;;;;5054106;28;20560;-66
2021/06/27 06:57:37;;;;;;;9.20;7.43;;;21.10;97.00;;;;;;5054431;28;20041;-66
2021/06/27 07:00:05;;;;;;;8.25;6.78;;;21.20;97.10;;;;;;5053841;28;20103;-66
2021/06/27 07:02:31;;;;;;;9.90;8.15;;;21.30;96.90;;;;;;5054165;28;20021;-66
2021/06/27 07:04:57;;;;;;;8.77;7.28;;;21.40;95.60;;;;;;5053516;28;20047;-65
2021/06/27 07:07:22;;;;;;;8.30;7.50;;;21.40;96.50;;;;;;5053538;28;20052;-65
2021/06/27 07:09:48;;;;;;;8.95;7.43;;;21.40;96.20;;;;;;5053345;28;20024;-65
2021/06/27 07:12:14;;;;;;;7.55;6.53;;;21.40;95.60;;;;;;5053656;28;20031;-62
2021/06/27 07:14:40;;;;;;;8.07;7.22;;;21.40;95.70;;;;;;5052589;28;20028;-63
2021/06/27 07:17:05;;;;;;;8.70;6.38;;;21.40;95.60;;;;;;5051744;28;20059;-80
2021/06/27 07:19:31;;;;;;;8.00;7.13;;;21.50;95.90;;;;;;5052491;28;20025;-81
2021/06/27 07:21:57;;;;;;;9.38;7.20;;;21.70;95.70;;;;;;5052649;28;20514;-85
2021/06/27 07:24:22;;;;;;;8.38;6.95;;;21.90;94.20;;;;;;5053973;28;20032;-79
2021/06/27 07:26:48;;;;;;;6.85;6.25;;;22.00;94.20;;;;;;5053796;28;20043;-74
2021/06/27 07:29:14;;;;;;;6.55;5.88;;;22.20;93.30;;;;;;5051706;28;20051;-79
2021/06/27 07:31:40;;;;;;;7.90;5.95;;;22.40;91.70;;;;;;5050814;28;20025;-82
2021/06/27 07:34:05;;;;;;;8.32;7.15;;;22.60;91.70;;;;;;5049308;28;20225;-83
2021/06/27 07:36:31;;;;;;;6.88;6.05;;;22.80;90.70;;;;;;5052870;28;20025;-80
2021/06/27 07:38:57;;;;;;;6.90;6.20;;;23.00;90.50;;;;;;5052428;28;20037;-84
2021/06/27 07:41:22;;;;;;;6.38;5.78;;;23.10;89.60;;;;;;5054467;28;20017;-92
2021/06/27 07:43:50;;;;;;;6.60;6.00;;;23.10;89.40;;;;;;5056992;28;20032;-76
2021/06/27 07:46:16;;;;;;;7.25;5.32;;;23.00;87.60;;;;;;5068464;28;20017;-82
2021/06/27 07:48:42;;;;;;;6.30;5.80;;;23.00;88.50;;;;;;5055896;28;20021;-83
2021/06/27 07:51:07;;;;;;;7.18;5.30;;;23.00;88.00;;;;;;5068576;28;20099;-82
2021/06/27 07:53:33;;;;;;;5.72;5.10;;;23.00;86.50;;;;;;5068235;28;20045;-82
2021/06/27 07:55:59;;;;;;;6.03;5.53;;;23.10;86.20;;;;;;5055102;28;20027;-83
2021/06/27 07:58:24;;;;;;;5.93;5.30;;;23.30;86.20;;;;;;5052956;28;20366;-82
2021/06/27 08:00:50;;;;;;;6.18;5.57;;;23.40;83.90;;;;;;5051890;28;20052;-82
2021/06/27 08:03:16;;;;;;;5.80;5.03;;;23.60;83.80;;;;;;5049516;28;20061;-76
2021/06/27 08:05:41;;;;;;;6.13;5.57;;;23.80;81.80;;;;;;5050999;28;20112;-77
2021/06/27 08:08:07;;;;;;;5.63;5.13;;;23.80;81.50;;;;;;5050483;28;20595;-78
2021/06/27 08:10:33;;;;;;;4.90;4.50;;;23.90;81.20;;;;;;5053010;28;20356;-86
2021/06/27 08:12:59;;;;;;;9.05;5.28;;;23.90;81.60;;;;;;5051277;28;20071;-77
2021/06/27 08:15:26;;;;;;;6.07;4.50;;;24.20;79.50;;;;;;5053582;28;20040;-86
2021/06/27 08:17:53;;;;;;;5.60;4.80;;;24.30;79.60;;;;;;5040254;28;20064;-87
2021/06/27 08:20:20;;;;;;;5.40;4.20;;;24.50;78.20;;;;;;5073155;28;20024;-80
2021/06/27 08:22:46;;;;;;;4.75;4.20;;;24.50;78.00;;;;;;5072687;28;20031;-74
2021/06/27 08:25:12;;;;;;;7.05;3.58;;;24.60;76.70;;;;;;5074087;28;20060;-80
2021/06/27 08:27:39;;;;;;;5.00;4.60;;;24.70;75.90;;;;;;5072759;28;20060;-76
2021/06/27 08:30:09;;;;;;;5.03;4.18;;;24.80;75.10;;;;;;5076255;28;20029;-80
2021/06/27 08:32:35;;;;;;;4.75;4.35;;;24.90;74.80;;;;;;5067808;28;20039;-83
2021/06/27 08:35:01;;;;;;;5.45;5.00;;;25.00;74.60;;;;;;5058638;28;20072;-80
2021/06/27 08:37:27;;;;;;;5.10;4.35;;;25.20;74.10;;;;;;5057040;28;20138;-81
2021/06/27 08:39:52;;;;;;;4.55;4.15;;;25.30;73.20;;;;;;5058689;28;20028;-89
2021/06/27 08:42:22;;;;;;;4.70;4.30;;;25.40;72.60;;;;;;5053839;28;20017;-83
2021/06/27 08:44:50;;;;;;;4.70;4.30;;;25.40;72.10;;;;;;5060054;28;20067;-74
2021/06/27 08:47:20;;;;;;;4.65;3.97;;;25.60;71.90;;;;;;5060845;28;20041;-79
2021/06/27 08:49:50;;;;;;;3.92;3.63;;;25.70;71.70;;;;;;5052423;28;20021;-74
2021/06/27 08:52:20;;;;;;;4.10;3.80;;;25.80;70.00;;;;;;5054868;28;20028;-74
2021/06/27 08:54:47;;;;;;;4.50;4.15;;;26.00;69.50;;;;;;5050697;28;20468;-72
2021/06/27 08:57:15;;;;;;;4.60;4.20;;;26.10;68.40;;;;;;5052089;28;20040;-79
2021/06/27 08:59:41;;;;;;;3.60;3.33;;;26.20;66.70;;;;;;5052483;28;20029;-78
2021/06/27 09:02:09;;;;;;;4.32;3.30;;;26.30;65.90;;;;;;5052275;28;20032;-86
2021/06/27 09:04:43;;;;;;;5.20;3.30;;;26.40;65.40;;;;;;5052424;28;20033;-81
2021/06/27 09:07:27;;;;;;;4.15;3.20;;;26.50;64.20;;;;;;5058853;28;20032;-87
2021/06/27 09:10:15;;;;;;;3.95;3.53;;;26.60;63.10;;;;;;5041162;28;20321;-90
2021/06/27 09:12:54;;;;;;;3.83;3.33;;;26.70;62.10;;;;;;5035667;28;20036;-79
2021/06/27 09:15:38;;;;;;;3.30;3.00;;;26.70;61.60;;;;;;5035131;28;20029;-79
2021/06/27 09:18:32;;;;;;;3.25;2.88;;;26.80;62.30;;;;;;5031753;28;20033;-76
2021/06/27 09:20:58;;;;;;;3.55;3.25;;;26.90;61.00;;;;;;5030116;28;20063;-76
2021/06/27 09:23:38;;;;;;;3.33;3.03;;;26.90;61.40;;;;;;5032183;28;20034;-76
2021/06/27 09:26:04;;;;;;;3.15;2.88;;;26.90;61.50;;;;;;5030735;28;20352;-75
2021/06/27 09:28:48;;;;;;;6.22;3.28;;;27.10;59.70;;;;;;5032031;28;20061;-75
2021/06/27 09:31:35;;;;;;;3.33;3.10;;;27.10;59.20;;;;;;5032152;28;20087;-76
2021/06/27 09:34:10;;;;;;;2.55;2.35;;;27.20;58.50;;;;;;5049630;28;20033;-77
2021/06/27 09:36:43;;;;;;;2.85;2.65;;;27.30;59.30;;;;;;5059260;28;20025;-78
2021/06/27 09:39:13;;;;;;;2.80;2.60;;;27.50;57.80;;;;;;5060422;28;20036;-77
2021/06/27 09:41:46;;;;;;;;;;;27.70;55.60;;;;;;5052203;28;20121;-76
2021/06/27 09:44:14;;;;;;;2.63;2.42;;;27.50;56.70;;;;;;5051324;28;19905;-76
2021/06/27 09:46:44;;;;;;;2.97;2.40;;;27.50;56.10;;;;;;5051114;28;20482;-76
2021/06/27 09:49:29;;;;;;;4.10;2.67;;;27.60;56.90;;;;;;5051123;28;20127;-77
2021/06/27 09:52:06;;;;;;;4.05;2.85;;;27.60;57.40;;;;;;5051393;28;20064;-77
2021/06/27 09:54:33;;;;;;;2.42;2.30;;;27.70;58.50;;;;;;5054540;28;20461;-77
2021/06/27 09:56:58;;;;;;;2.78;2.58;;;27.80;57.10;;;;;;5054945;28;20033;-77
2021/06/27 09:59:40;;;;;;;4.32;2.53;;;27.90;56.90;;;;;;5054423;28;20191;-75
2021/06/27 10:02:07;;;;;;;2.70;2.50;;;28.20;55.70;;;;;;5053161;28;20036;-76
2021/06/27 10:04:35;;;;;;;3.55;2.33;;;28.30;56.50;;;;;;5054750;28;20068;-76
2021/06/27 10:07:03;;;;;;;2.97;2.60;;;28.40;55.10;;;;;;5046063;28;20493;-76
2021/06/27 10:09:29;;;;;;;2.60;2.42;;;28.50;55.40;;;;;;5054776;28;20343;-75
2021/06/27 10:11:58;;;;;;;2.88;2.67;;;28.50;55.10;;;;;;5053751;28;20028;-75
2021/06/27 10:14:30;;;;;;;2.90;2.70;;;28.60;55.70;;;;;;5063002;28;20024;-76
2021/06/27 10:16:58;;;;;;;3.05;2.83;;;28.80;54.80;;;;;;5068545;28;20035;-75
2021/06/27 10:19:25;;;;;;;2.85;2.53;;;28.90;54.20;;;;;;5054327;28;20040;-76
2021/06/27 10:21:51;;;;;;;3.65;2.65;;;29.10;53.30;;;;;;5044346;28;20029;-73
2021/06/27 10:24:19;;;;;;;2.53;2.33;;;29.40;52.00;;;;;;5054778;28;20411;-65
2021/06/27 10:26:46;;;;;;;2.60;2.45;;;29.60;52.40;;;;;;5053977;28;20064;-70
2021/06/27 10:29:13;;;;;;;2.80;2.60;;;29.60;52.20;;;;;;5054173;28;20040;-67
2021/06/27 10:31:39;;;;;;;2.53;2.33;;;29.70;51.40;;;;;;5054493;28;20107;-65
2021/06/27 10:34:05;;;;;;;2.20;2.10;;;29.60;51.60;;;;;;5058217;28;20435;-65
2021/06/27 10:36:41;;;;;;;2.50;2.35;;;29.40;51.90;;;;;;5054944;28;20033;-66
2021/06/27 10:39:12;;;;;;;2.08;1.98;;;29.30;51.50;;;;;;5053529;28;20588;-66
2021/06/27 10:42:06;;;;;;;3.38;2.33;;;29.40;51.70;;;;;;5054314;28;20033;-70
2021/06/27 10:44:38;;;;;;;2.70;2.20;;;29.70;52.20;;;;;;5053933;28;20083;-67
2021/06/27 10:47:05;;;;;;;2.22;2.00;;;30.10;49.80;;;;;;5053219;28;20028;-67
2021/06/27 10:49:31;;;;;;;2.70;1.98;;;30.40;48.50;;;;;;5053993;28;20119;-70
2021/06/27 10:51:58;;;;;;;2.30;2.10;;;30.60;50.40;;;;;;5053418;28;20052;-74
2021/06/27 10:54:23;;;;;;;2.60;2.08;;;30.70;48.60;;;;;;5053241;28;20056;-74
2021/06/27 10:56:52;;;;;;;2.10;2.00;;;30.70;47.80;;;;;;5053232;28;20032;-73
2021/06/27 10:59:40;;;;;;;1.98;1.80;;;30.60;49.00;;;;;;5054232;28;20039;-77
2021/06/27 11:02:20;;;;;;;2.40;2.20;;;30.80;48.80;;;;;;5051431;28;20040;-77
2021/06/27 11:04:48;;;;;;;3.60;2.00;;;30.90;48.40;;;;;;5052693;28;20040;-75
2021/06/27 11:07:36;;;;;;;2.65;2.08;;;31.00;48.20;;;;;;5053335;28;20033;-70
2021/06/27 11:10:20;;;;;;;4.82;2.08;;;31.10;48.20;;;;;;5047979;28;20149;-65
2021/06/27 11:13:01;;;;;;;2.60;2.20;;;31.20;48.20;;;;;;5053341;28;20025;-65
2021/06/27 11:15:30;;;;;;;3.00;2.45;;;31.40;46.40;;;;;;5053412;28;20489;-65
2021/06/27 11:18:02;;;;;;;2.05;1.95;;;31.40;46.70;;;;;;5052509;28;20037;-70
2021/06/27 11:20:34;;;;;;;2.40;2.20;;;31.30;47.20;;;;;;5053047;28;20482;-67
2021/06/27 11:23:01;;;;;;;2.55;2.25;;;31.20;47.30;;;;;;5051883;28;20040;-64
2021/06/27 11:25:40;;;;;;;2.00;1.90;;;31.10;47.10;;;;;;5053495;28;20425;-64
2021/06/27 11:28:21;;;;;;;2.20;2.10;;;30.90;47.70;;;;;;5051963;28;20094;-66
2021/06/27 11:30:49;;;;;;;2.08;1.95;;;30.70;47.30;;;;;;5053211;28;20060;-66
2021/06/27 11:33:26;;;;;;;3.58;1.92;;;30.60;47.80;;;;;;5051372;28;20149;-66
2021/06/27 11:35:57;;;;;;;2.17;1.98;;;30.60;47.50;;;;;;5052121;28;20389;-66
2021/06/27 11:38:39;;;;;;;2.30;2.20;;;30.70;47.60;;;;;;5053233;28;20052;-66
2021/06/27 11:41:11;;;;;;;3.97;2.30;;;30.70;48.10;;;;;;5052290;28;20060;-66
2021/06/27 11:44:15;;;;;;;1.85;1.75;;;30.90;47.10;;;;;;5046914;28;20032;-66
2021/06/27 11:46:44;;;;;;;2.28;2.05;;;30.90;46.60;;;;;;5023245;28;20041;-66
2021/06/27 11:49:16;;;;;;;4.20;2.00;;;30.90;46.80;;;;;;5040606;28;20052;-66
2021/06/27 11:51:48;;;;;;;2.22;2.13;;;30.80;46.60;;;;;;5056634;28;20371;-66
2021/06/27 11:54:19;;;;;;;1.88;1.70;;;31.00;47.30;;;;;;5051967;28;20045;-66
2021/06/27 11:57:07;;;;;;;1.90;1.80;;;31.00;47.40;;;;;;5052804;28;20058;-65
2021/06/27 11:59:51;;;;;;;1.95;1.85;;;31.10;45.80;;;;;;5052472;28;20037;-65
2021/06/27 12:02:26;;;;;;;2.00;1.90;;;31.20;45.70;;;;;;5052221;28;20025;-64
2021/06/27 12:04:57;;;;;;;2.03;1.92;;;31.20;46.70;;;;;;5047326;28;20108;-69
2021/06/27 12:07:43;;;;;;;2.33;2.10;;;31.20;46.10;;;;;;5052524;28;20025;-70
2021/06/27 12:10:18;;;;;;;2.20;2.10;;;31.30;47.10;;;;;;5052191;28;20037;-67
2021/06/27 12:13:04;;;;;;;2.67;2.40;;;31.30;46.40;;;;;;5052307;28;20025;-67
2021/06/27 12:15:59;;;;;;;1.92;1.83;;;31.30;46.20;;;;;;5052061;28;20036;-66
2021/06/27 12:18:30;;;;;;;2.58;2.30;;;31.40;46.40;;;;;;5053016;28;20097;-67
2021/06/27 12:21:00;;;;;;;2.25;2.15;;;31.60;45.90;;;;;;5051205;28;20083;-67
2021/06/27 12:23:28;;;;;;;;;;;31.80;45.40;;;;;;5052735;28;20036;-66
2021/06/27 12:26:10;;;;;;;1.80;1.70;;;32.00;44.10;;;;;;5051635;28;19916;-67
2021/06/27 12:28:40;;;;;;;2.13;1.95;;;32.10;43.50;;;;;;5054283;28;20034;-64
2021/06/27 12:31:06;;;;;;;1.80;1.70;;;32.20;44.50;;;;;;5058525;28;20037;-65
2021/06/27 12:33:37;;;;;;;2.15;1.95;;;32.20;42.60;;;;;;5051429;28;20493;-65
2021/06/27 12:36:13;;;;;;;2.03;1.88;;;32.10;44.20;;;;;;5051274;28;20028;-65
2021/06/27 12:38:45;;;;;;;2.95;2.40;;;32.10;43.00;;;;;;5052106;28;20040;-66
2021/06/27 12:41:21;;;;;;;2.80;1.90;;;32.00;43.60;;;;;;5051752;28;20017;-67
2021/06/27 12:44:02;;;;;;;1.92;1.83;;;31.90;42.60;;;;;;5051567;28;20062;-66
2021/06/27 12:46:42;;;;;;;2.20;2.10;;;32.00;44.40;;;;;;5051824;28;20013;-66
2021/06/27 12:49:10;;;;;;;1.88;1.77;;;32.10;44.90;;;;;;5050024;28;20037;-66
2021/06/27 12:51:40;;;;;;;2.10;1.85;;;32.20;44.40;;;;;;5052180;28;20466;-66
2021/06/27 12:54:16;;;;;;;4.97;1.67;;;32.20;43.30;;;;;;5053323;28;20041;-67